Capitol Logistics 97




EDDK
Cologne Bonn Airport
Cologne, DE
VHHH
Chek Lap Kok International
Hong Kong, HK

Route Details

Aircraft Information
Group: Large Widebodies
Types: B744,MD11
Route Data
Demand: L
Distance: 4975nm
Duration: 10h 05m
Recm'd Route: PODIP Y867 WRB N850 ROBEG L980 DLE P717 BKD L619 VIBIS Z717 BODLA OSKUD N858 IRKAL ZENIT M874 ASKIL OLOPI T833 DOSAG M56 BEKAS L163 SIVKO L728 GEDSA L147 KAMUD W186 SADAN Y1 OMBON B330 SJG G586 QP B330 GYA A599 POU R473 SIERA
Origin Wx: EDDK 270650Z AUTO 27014KT 240V310 2600 RA BR OVC007 13/12 Q1020 BECMG 7000 NSW BKN012
Dest. Wx: VHHH 270700Z 21007KT 180V240 9999 -SHRA FEW005 FEW010CB SCT020 28/26 Q1004 RERA TEMPO 3500 SHRA FEW008CB SCT020
Notes:

Financial History
Total Freight: 261,525lbs
Average Load: 87,175lbs/flt
Fuel Used: 785,272lbs
Avg. Fuel Used: 261,757lbs/flt
Fuel Expense: $326,559
Avg. Fuel Expense: $108,853
Avg. Fuel Cost: $0.41/lbs
Total Gross Income: $533,773
Pilot Pay: $687
Total Expenses: $74,511
Total Revenue: $125,578
Average Revenue: $177,924.18